Time;durP1;ratioP1;P1;durP2;ratioP2;P2;SDS_P1;SDS_P2;PMS_P1;PMS_P2;Temp;Humidity;BMP_temperature;BMP_pressure;BME280_temperature;BME280_humidity;BME280_pressure;Samples;Min_cycle;Max_cycle;Signal;HPM_P1;HPM_P2
2023/10/06 00:02:44;;;;;;;8.68;6.03;;;;;;;20.87;44.71;94335.47;6092279;23;20018;-93
2023/10/06 00:05:36;;;;;;;9.80;6.10;;;;;;;20.85;44.68;94327.75;6083254;23;20017;-94
2023/10/06 00:11:15;;;;;;;8.35;5.00;;;;;;;20.83;44.61;94319.25;6153810;23;20018;-91
2023/10/06 00:14:38;;;;;;;8.30;5.20;;;;;;;20.83;44.90;94332.25;6081491;22;20049;-93
2023/10/06 00:17:28;;;;;;;9.43;5.72;;;;;;;20.82;44.85;94322.50;6089982;23;20015;-91
2023/10/06 00:20:05;;;;;;;8.48;5.63;;;;;;;20.84;44.83;94333.75;6065674;23;20355;-93
2023/10/06 00:23:04;;;;;;;8.90;5.45;;;;;;;20.82;44.89;94330.75;5962402;23;20020;-93
2023/10/06 00:25:54;;;;;;;8.30;5.13;;;;;;;20.82;44.93;94330.75;6110403;23;20009;-90
2023/10/06 00:28:32;;;;;;;7.07;5.07;;;;;;;20.82;44.87;94326.00;5991799;23;20050;-92
2023/10/06 00:31:08;;;;;;;9.23;5.30;;;;;;;20.83;44.56;94329.50;6047343;23;20203;-91
2023/10/06 00:33:42;;;;;;;6.70;4.70;;;;;;;20.83;44.92;94319.25;5965930;23;20075;-93
2023/10/06 00:36:14;;;;;;;7.72;5.32;;;;;;;20.85;44.75;94327.75;6015559;23;21676;-92
2023/10/06 00:39:12;;;;;;;6.90;4.97;;;;;;;20.81;45.00;94316.25;6115782;23;20045;-93
2023/10/06 00:42:04;;;;;;;6.88;4.63;;;;;;;20.83;44.88;94321.25;6131395;23;20052;-93
2023/10/06 00:44:35;;;;;;;8.98;4.72;;;;;;;20.84;44.88;94318.00;6086337;23;20041;-93
2023/10/06 00:47:41;;;;;;;8.70;5.55;;;;;;;20.82;44.94;94306.75;6048525;23;20042;-94
2023/10/06 00:50:22;;;;;;;7.13;4.85;;;;;;;20.82;44.93;94306.75;6065489;23;20041;-92
2023/10/06 00:53:00;;;;;;;7.43;5.05;;;;;;;20.82;44.89;94317.75;6162127;23;20092;-92
2023/10/06 00:55:32;;;;;;;8.48;5.53;;;;;;;20.80;44.84;94309.25;6136169;23;20584;-93
2023/10/06 00:58:10;;;;;;;8.98;5.22;;;;;;;20.80;44.92;94309.25;6040666;23;20013;-93
2023/10/06 01:00:40;;;;;;;6.57;4.50;;;;;;;20.83;44.72;94307.50;6056596;23;20018;-93
2023/10/06 01:03:26;;;;;;;6.85;4.28;;;;;;;20.83;44.69;94302.75;6039132;23;20005;-93
2023/10/06 01:06:07;;;;;;;7.47;5.50;;;;;;;20.83;44.88;94313.75;6137954;23;20024;-93
2023/10/06 01:08:39;;;;;;;10.32;5.03;;;;;;;20.81;44.81;94316.25;6137523;23;20021;-92
2023/10/06 01:14:00;;;;;;;7.20;5.25;;;;;;;20.78;44.73;94317.28;6137391;23;20819;-91
2023/10/06 01:16:35;;;;;;;7.97;4.40;;;;;;;20.82;44.99;94322.50;6130183;23;20026;-91
2023/10/06 01:22:06;;;;;;;6.53;4.45;;;;;;;20.81;44.92;94312.75;6033116;23;20022;-91
2023/10/06 01:24:59;;;;;;;6.25;4.38;;;;;;;20.80;44.77;94316.75;6038020;23;20006;-93
2023/10/06 01:27:29;;;;;;;6.38;4.28;;;;;;;20.80;44.76;94317.50;6105409;23;20025;-93
2023/10/06 01:30:22;;;;;;;7.18;4.65;;;;;;;20.81;44.75;94312.75;6047656;23;20014;-93
2023/10/06 01:33:05;;;;;;;7.50;4.28;;;;;;;20.80;44.84;94323.00;6008197;23;20011;-93
2023/10/06 01:35:55;;;;;;;5.97;4.10;;;;;;;20.81;44.69;94326.50;6013922;23;20101;-94
2023/10/06 01:38:53;;;;;;;5.45;3.67;;;;;;;20.81;44.75;94323.75;5378911;23;15981431;-93
2023/10/06 01:41:28;;;;;;;6.68;4.50;;;;;;;20.82;44.64;94320.50;6008199;23;20026;-94
2023/10/06 01:44:34;;;;;;;6.38;4.30;;;;;;;20.76;44.69;94306.06;6028468;23;20065;-93
2023/10/06 01:47:06;;;;;;;6.43;4.85;;;;;;;20.78;44.85;94309.03;6104804;23;20041;-90
2023/10/06 01:55:42;;;;;;;7.65;4.00;;;;;;;20.75;44.60;94312.81;6122098;23;20041;-93
2023/10/06 01:58:28;;;;;;;8.85;4.65;;;;;;;20.73;44.87;94301.56;6079368;23;20016;-93
2023/10/06 02:01:05;;;;;;;7.78;4.50;;;;;;;20.77;44.59;94306.81;6107971;23;20013;-92
2023/10/06 02:03:54;;;;;;;5.85;3.90;;;;;;;20.74;44.91;94307.81;6067626;23;20006;-92
2023/10/06 02:06:52;;;;;;;7.03;4.30;;;;;;;20.73;44.94;94312.56;6035375;23;20062;-93
2023/10/06 02:09:28;;;;;;;7.60;4.05;;;;;;;20.76;44.98;94311.53;6093816;23;20044;-93
2023/10/06 02:12:00;;;;;;;5.53;3.75;;;;;;;20.74;44.88;94307.81;6030500;23;19998;-94
2023/10/06 02:14:32;;;;;;;5.63;3.78;;;;;;;20.75;44.85;94304.56;6094422;23;20011;-93
2023/10/06 02:19:32;;;;;;;6.88;3.67;;;;;;;20.77;44.52;94309.53;6037130;23;20011;-91
2023/10/06 02:22:33;;;;;;;7.38;4.07;;;;;;;20.73;44.66;94306.31;6036656;23;20093;-93
2023/10/06 02:28:26;;;;;;;7.90;3.95;;;;;;;20.75;44.62;94309.31;6114341;23;20593;-92
2023/10/06 02:36:41;;;;;;;5.40;3.58;;;;;;;20.75;44.22;94304.56;6096222;23;20030;-94
2023/10/06 02:39:38;;;;;;;6.70;3.95;;;;;;;20.73;44.63;94303.56;5993365;23;20035;-93
2023/10/06 02:42:08;;;;;;;4.40;3.42;;;;;;;20.73;44.69;94304.31;6059029;23;20026;-90
2023/10/06 02:45:07;;;;;;;4.75;3.50;;;;;;;20.73;44.49;94298.06;6084721;23;20014;-91
2023/10/06 02:47:52;;;;;;;5.53;3.30;;;;;;;20.75;44.47;94306.56;5972326;23;19995;-91
2023/10/06 02:50:55;;;;;;;5.40;3.47;;;;;;;20.73;44.67;94315.31;5962334;23;20143;-94
2023/10/06 02:53:50;;;;;;;6.13;3.95;;;;;;;20.73;44.41;94317.31;5935579;24;20028;-93
2023/10/06 02:56:39;;;;;;;5.03;3.30;;;;;;;20.73;44.43;94311.81;5985676;24;20007;-93
2023/10/06 02:59:20;;;;;;;4.25;3.40;;;;;;;20.73;44.25;94317.31;6037994;23;20057;-91
2023/10/06 03:02:19;;;;;;;5.75;3.83;;;;;;;20.72;44.46;94316.56;6100508;23;20018;-93
2023/10/06 03:05:40;;;;;;;4.47;3.00;;;;;;;20.74;44.41;94327.78;5989624;23;20004;-93
2023/10/06 03:08:42;;;;;;;5.32;3.25;;;;;;;20.71;44.33;94342.53;5905083;24;20069;-93
2023/10/06 03:11:25;;;;;;;4.32;2.90;;;;;;;20.70;44.42;94341.03;5919060;24;20005;-93
2023/10/06 03:14:42;;;;;;;4.97;3.50;;;;;;;20.72;44.36;94326.78;5913802;23;20021;-93
2023/10/06 03:17:42;;;;;;;4.93;3.00;;;;;;;20.70;44.42;94335.53;6046340;23;20002;-94
2023/10/06 03:20:18;;;;;;;5.50;3.20;;;;;;;20.72;44.39;94333.03;6009795;23;20069;-95
2023/10/06 03:22:54;;;;;;;4.82;3.33;;;;;;;20.71;44.13;94319.81;6077619;23;20022;-93
2023/10/06 03:25:28;;;;;;;4.32;3.00;;;;;;;20.71;44.53;94326.03;6132723;23;20022;-95
2023/10/06 03:28:03;;;;;;;5.47;2.70;;;;;;;20.69;44.18;94320.31;6119113;23;20021;-90
2023/10/06 03:30:54;;;;;;;5.13;3.30;;;;;;;20.70;44.53;94318.31;6049458;23;20068;-93
2023/10/06 03:33:23;;;;;;;3.88;2.90;;;;;;;20.68;44.39;94318.81;6078725;23;20022;-93
2023/10/06 03:35:54;;;;;;;6.15;3.47;;;;;;;20.69;44.43;94309.31;6061107;23;20042;-93
2023/10/06 03:39:06;;;;;;;5.83;3.40;;;;;;;20.67;44.44;94308.31;6057195;23;20014;-93
2023/10/06 03:41:59;;;;;;;4.53;3.05;;;;;;;20.68;44.50;94301.56;6092337;23;20022;-92
2023/10/06 03:44:44;;;;;;;4.25;3.22;;;;;;;20.72;44.48;94296.56;5988699;23;20031;-94
2023/10/06 03:47:19;;;;;;;5.63;3.47;;;;;;;20.67;44.41;94303.56;6042745;23;20081;-94
2023/10/06 03:49:47;;;;;;;4.07;3.20;;;;;;;20.69;44.35;94312.06;6097019;23;20014;-90
2023/10/06 03:52:13;;;;;;;5.05;3.22;;;;;;;20.69;44.57;94319.56;6135193;23;20053;-90
2023/10/06 03:57:23;;;;;;;4.43;2.40;;;;;;;20.69;44.20;94323.06;6176111;23;20056;-93
2023/10/06 04:00:19;;;;;;;4.55;3.08;;;;;;;20.68;44.50;94324.31;6094215;23;20029;-93
2023/10/06 04:03:29;;;;;;;4.50;2.65;;;;;;;20.71;44.32;94315.06;6064273;23;20006;-94
2023/10/06 04:06:25;;;;;;;3.15;2.67;;;;;;;20.69;44.35;94311.31;6096544;23;20013;-93
2023/10/06 04:09:30;;;;;;;4.47;2.53;;;;;;;20.68;44.29;94309.81;6085175;23;20022;-93
2023/10/06 04:12:07;;;;;;;4.57;2.72;;;;;;;20.65;44.36;94317.06;6089910;23;20061;-91
2023/10/06 04:14:38;;;;;;;4.05;2.60;;;;;;;20.65;44.58;94319.81;6099293;23;20006;-92
2023/10/06 04:17:12;;;;;;;3.72;2.50;;;;;;;20.66;44.65;94320.56;6111490;23;20011;-94
2023/10/06 04:19:45;;;;;;;4.80;2.80;;;;;;;20.66;44.59;94320.56;6138390;23;20046;-91
2023/10/06 04:22:15;;;;;;;3.85;2.30;;;;;;;20.62;44.57;94325.56;6071378;23;20089;-91
2023/10/06 04:24:40;;;;;;;4.47;2.45;;;;;;;20.56;44.73;94317.34;6052436;23;20026;-92
2023/10/06 04:27:11;;;;;;;3.33;2.38;;;;;;;20.59;44.48;94319.06;6083439;23;20021;-94
2023/10/06 04:29:40;;;;;;;4.22;2.50;;;;;;;20.62;44.31;94312.56;6089400;23;20025;-93
2023/10/06 04:32:08;;;;;;;3.92;2.47;;;;;;;20.65;44.65;94322.56;6077250;23;20539;-91
2023/10/06 04:34:44;;;;;;;3.08;2.20;;;;;;;20.62;44.67;94309.06;6055502;23;20023;-91
2023/10/06 04:37:13;;;;;;;5.63;2.50;;;;;;;20.63;44.65;94322.31;5964370;23;20072;-91
2023/10/06 04:39:45;;;;;;;3.50;2.45;;;;;;;20.61;44.66;94324.81;5976590;23;20028;-91
2023/10/06 04:42:32;;;;;;;2.17;1.70;;;;;;;20.61;44.70;94321.31;6001947;23;20052;-92
2023/10/06 04:44:59;;;;;;;2.40;1.75;;;;;;;20.61;44.45;94324.81;5961419;24;20037;-92
2023/10/06 04:47:25;;;;;;;3.38;2.03;;;;;;;20.60;44.58;94317.06;5908243;24;20149;-91
2023/10/06 04:49:53;;;;;;;2.88;2.00;;;;;;;20.61;44.51;94326.81;5904892;24;20096;-92
2023/10/06 04:52:18;;;;;;;3.33;2.10;;;;;;;20.61;44.89;94315.81;5927307;23;20010;-92
2023/10/06 04:54:50;;;;;;;2.72;1.80;;;;;;;20.62;44.62;94320.81;6036330;23;20034;-91
2023/10/06 04:57:21;;;;;;;3.25;1.90;;;;;;;20.62;44.61;94320.06;6045376;23;20020;-92
2023/10/06 04:59:52;;;;;;;3.45;1.50;;;;;;;20.59;44.40;94324.56;6025814;23;20019;-91
2023/10/06 05:02:18;;;;;;;;;;;;;;;20.63;44.60;94322.31;5989243;23;20074;-91
2023/10/06 05:04:44;;;;;;;2.35;1.63;;;;;;;20.64;44.49;94329.31;6129529;23;19921;-93
2023/10/06 05:07:16;;;;;;;2.83;1.35;;;;;;;20.60;44.48;94328.06;6048704;23;20074;-92
2023/10/06 05:09:43;;;;;;;3.03;1.48;;;;;;;20.59;44.40;94326.56;6128163;23;20030;-92
2023/10/06 05:12:18;;;;;;;2.45;1.80;;;;;;;20.58;44.35;94333.31;6068131;23;20019;-90
2023/10/06 05:14:54;;;;;;;1.88;1.25;;;;;;;20.61;44.63;94324.06;6020472;23;20428;-92
2023/10/06 05:17:23;;;;;;;2.20;1.48;;;;;;;20.65;44.60;94330.81;6044049;23;20019;-92
2023/10/06 05:20:01;;;;;;;1.83;1.38;;;;;;;20.64;44.41;94326.56;6040450;23;20012;-93
2023/10/06 05:22:31;;;;;;;1.97;1.60;;;;;;;20.64;44.53;94325.81;6084043;23;20026;-92
2023/10/06 05:25:01;;;;;;;2.85;1.52;;;;;;;20.64;44.37;94328.56;6109316;23;20256;-92
2023/10/06 05:27:28;;;;;;;2.63;1.45;;;;;;;20.65;44.03;94325.31;6022527;23;20022;-94
2023/10/06 05:29:56;;;;;;;1.90;1.27;;;;;;;20.64;44.28;94323.81;6044483;23;20020;-93
2023/10/06 05:32:25;;;;;;;2.25;1.30;;;;;;;20.68;44.50;94329.78;6006048;23;20491;-92
2023/10/06 05:34:51;;;;;;;2.08;1.30;;;;;;;20.62;44.30;94334.53;5986045;23;20031;-91
2023/10/06 05:37:17;;;;;;;1.67;1.10;;;;;;;20.67;44.19;94335.78;6002834;23;20027;-92
2023/10/06 05:39:52;;;;;;;1.83;1.23;;;;;;;20.68;44.39;94346.28;5980830;23;20023;-92
2023/10/06 05:42:18;;;;;;;4.47;1.40;;;;;;;20.67;44.32;94344.78;5992436;23;20050;-92
2023/10/06 05:44:53;;;;;;;1.83;1.13;;;;;;;20.65;44.41;94347.28;6004671;23;20034;-92
2023/10/06 05:47:26;;;;;;;1.83;1.40;;;;;;;20.66;44.24;94348.03;5978088;23;20487;-92
2023/10/06 05:50:08;;;;;;;1.63;1.35;;;;;;;20.67;44.51;94342.03;5974182;24;20419;-91
2023/10/06 05:52:38;;;;;;;1.35;1.00;;;;;;;20.69;44.28;94350.53;5985787;23;20014;-92
2023/10/06 05:55:19;;;;;;;2.05;1.30;;;;;;;20.73;44.39;94356.50;6081969;23;20028;-92
2023/10/06 05:57:53;;;;;;;2.10;1.20;;;;;;;20.70;44.24;94354.03;6042169;23;20023;-92
2023/10/06 06:00:33;;;;;;;1.48;1.00;;;;;;;20.75;44.34;94364.25;6101347;23;20037;-91
2023/10/06 06:03:18;;;;;;;1.48;0.93;;;;;;;20.72;44.23;94359.75;6024059;23;20060;-91
2023/10/06 06:05:57;;;;;;;1.25;1.00;;;;;;;20.73;44.12;94364.00;5984840;23;20024;-92
2023/10/06 06:11:07;;;;;;;1.58;0.95;;;;;;;20.75;44.04;94362.25;6143412;23;20018;-92
2023/10/06 06:13:37;;;;;;;2.67;1.20;;;;;;;20.80;44.07;94361.47;6111349;23;20021;-91
2023/10/06 06:16:08;;;;;;;1.30;0.82;;;;;;;20.75;44.23;94356.75;6016523;23;20022;-92
2023/10/06 06:18:42;;;;;;;2.03;1.08;;;;;;;20.77;44.20;94364.50;6109678;23;20010;-90
2023/10/06 06:21:12;;;;;;;1.25;0.80;;;;;;;20.79;44.16;94367.47;5960280;23;20054;-91
2023/10/06 06:24:12;;;;;;;1.15;0.90;;;;;;;20.84;44.05;94361.97;6017822;23;20019;-92
2023/10/06 06:26:40;;;;;;;1.38;0.70;;;;;;;20.80;44.20;94363.47;6047749;23;20047;-91
2023/10/06 06:29:15;;;;;;;1.52;0.90;;;;;;;20.83;43.94;94356.97;6013559;23;20010;-92
2023/10/06 06:31:44;;;;;;;1.05;0.73;;;;;;;20.84;44.24;94358.47;6022913;23;20052;-91
2023/10/06 06:34:18;;;;;;;0.68;0.60;;;;;;;20.86;44.23;94361.47;5988986;23;20314;-93
2023/10/06 06:36:53;;;;;;;1.30;0.90;;;;;;;20.83;44.12;94359.72;6039070;23;20023;-92
2023/10/06 06:39:21;;;;;;;1.60;0.80;;;;;;;20.86;44.04;94364.97;6025069;23;20472;-92
2023/10/06 06:41:47;;;;;;;1.40;1.00;;;;;;;20.86;44.17;94366.97;6005403;23;20028;-92
2023/10/06 06:44:22;;;;;;;1.17;0.68;;;;;;;20.86;44.03;94364.97;6009975;23;20023;-92
2023/10/06 06:47:00;;;;;;;1.08;0.75;;;;;;;20.87;44.22;94368.47;5973843;23;20052;-91
2023/10/06 06:49:26;;;;;;;1.05;0.65;;;;;;;20.88;43.99;94378.22;5940473;23;20039;-92
2023/10/06 06:51:53;;;;;;;0.70;0.60;;;;;;;20.88;44.16;94381.69;6048510;23;20052;-91
2023/10/06 06:54:24;;;;;;;0.55;0.45;;;;;;;20.93;43.93;94380.19;6050892;23;20050;-93
2023/10/06 06:56:49;;;;;;;0.90;0.65;;;;;;;20.95;44.02;94387.94;6146420;23;20025;-92
2023/10/06 06:59:25;;;;;;;1.27;0.68;;;;;;;20.94;44.09;94383.69;6080428;23;20028;-92
2023/10/06 07:01:52;;;;;;;1.00;0.60;;;;;;;21.02;43.73;94390.16;6069656;23;20014;-92
2023/10/06 07:04:29;;;;;;;1.02;0.63;;;;;;;21.03;44.01;94397.91;6082286;23;20022;-92
2023/10/06 07:06:55;;;;;;;0.70;0.60;;;;;;;21.00;43.89;94392.69;6079214;23;20061;-91
2023/10/06 07:09:22;;;;;;;0.70;0.50;;;;;;;21.01;43.89;94394.91;6062792;23;20063;-92
2023/10/06 07:11:48;;;;;;;0.52;0.47;;;;;;;21.01;44.01;94378.41;5987410;23;20015;-92
2023/10/06 07:14:15;;;;;;;1.23;0.60;;;;;;;21.01;43.86;94391.41;6026300;23;20037;-91
2023/10/06 07:16:43;;;;;;;0.80;0.50;;;;;;;21.01;43.79;94383.91;6043279;23;20110;-92
2023/10/06 07:19:19;;;;;;;1.02;0.75;;;;;;;21.03;43.91;94392.41;6109336;23;20014;-92
2023/10/06 07:21:49;;;;;;;1.60;0.55;;;;;;;21.05;43.77;94387.16;6087289;23;20022;-91
2023/10/06 07:24:18;;;;;;;0.90;0.57;;;;;;;21.03;43.81;94391.66;6084509;23;20014;-93
2023/10/06 07:26:44;;;;;;;1.60;0.70;;;;;;;21.08;43.78;94388.13;6082787;23;20093;-91
2023/10/06 07:29:12;;;;;;;0.90;0.50;;;;;;;21.08;43.73;94393.63;5978201;23;20020;-93
2023/10/06 07:31:38;;;;;;;1.02;0.55;;;;;;;21.08;43.72;94390.88;6115705;23;20025;-91
2023/10/06 07:34:07;;;;;;;0.63;0.57;;;;;;;21.09;43.71;94395.88;6115349;23;20058;-91
2023/10/06 07:36:35;;;;;;;8.55;2.28;;;;;;;21.05;43.36;94395.41;6127827;23;20074;-93
2023/10/06 07:39:03;;;;;;;33.30;5.75;;;;;;;20.99;43.28;94391.94;6084372;23;20405;-92
2023/10/06 07:41:29;;;;;;;5.72;2.13;;;;;;;21.02;43.78;94388.16;6075396;23;20109;-91
2023/10/06 07:43:56;;;;;;;3.05;1.52;;;;;;;21.06;43.60;94407.88;6097296;23;20022;-92
2023/10/06 07:46:21;;;;;;;3.45;2.45;;;;;;;21.08;43.61;94393.63;6073354;23;20018;-92
2023/10/06 07:48:47;;;;;;;9.70;5.88;;;;;;;21.09;43.85;94411.63;6074186;23;20028;-94
2023/10/06 07:51:13;;;;;;;16.88;10.93;;;;;;;21.11;43.74;94403.63;6075181;23;20025;-93
2023/10/06 07:53:39;;;;;;;18.17;10.57;;;;;;;21.16;43.75;94411.13;6095262;23;20018;-94
2023/10/06 07:56:06;;;;;;;10.73;8.55;;;;;;;21.17;43.62;94416.13;6071048;23;20014;-91
2023/10/06 07:58:37;;;;;;;11.65;9.52;;;;;;;21.16;43.61;94414.63;6075679;23;20438;-94
2023/10/06 08:01:05;;;;;;;166.63;95.55;;;;;;;21.20;43.36;94417.91;6073821;23;20010;-93
2023/10/06 08:03:32;;;;;;;32.63;17.45;;;;;;;21.15;43.15;94417.88;6077615;23;20021;-93
2023/10/06 08:06:01;;;;;;;10.30;4.30;;;;;;;21.09;42.73;94422.63;6104609;23;20080;-94
2023/10/06 08:08:28;;;;;;;10.65;4.53;;;;;;;21.01;42.83;94416.91;6077724;23;20017;-94
2023/10/06 08:10:54;;;;;;;24.85;7.75;;;;;;;20.99;43.01;94408.44;6076146;23;20037;-93
2023/10/06 08:13:20;;;;;;;40.05;17.55;;;;;;;20.95;42.50;94416.19;6100881;23;20033;-93
2023/10/06 08:15:46;;;;;;;23.83;7.28;;;;;;;20.95;42.21;94409.94;6074256;23;20085;-93
2023/10/06 08:18:12;;;;;;;16.67;4.97;;;;;;;20.93;42.88;94406.94;6067640;23;20014;-92
2023/10/06 08:20:40;;;;;;;16.85;5.53;;;;;;;20.89;42.77;94407.19;6068117;23;20018;-94
2023/10/06 08:23:11;;;;;;;25.10;10.00;;;;;;;20.88;43.17;94400.94;6066280;23;20043;-93
2023/10/06 08:25:39;;;;;;;59.38;37.08;;;;;;;20.84;43.12;94394.94;6089637;23;20026;-93
2023/10/06 08:28:07;;;;;;;39.65;22.35;;;;;;;20.80;42.80;94397.19;6008304;23;20019;-94
2023/10/06 08:30:37;;;;;;;14.00;7.28;;;;;;;20.90;42.69;94399.69;5974912;23;20065;-93
2023/10/06 08:33:09;;;;;;;14.07;5.47;;;;;;;20.83;42.31;94398.94;5968145;23;20039;-93
2023/10/06 08:35:37;;;;;;;14.25;7.75;;;;;;;20.72;42.24;94403.72;5958881;23;20027;-94
2023/10/06 08:38:04;;;;;;;610.95;513.15;;;;;;;20.76;42.76;94404.97;5983510;23;20030;-94
2023/10/06 08:40:32;;;;;;;10.20;5.32;;;;;;;20.71;42.72;94405.72;5982739;23;20117;-94
2023/10/06 08:42:59;;;;;;;11.27;4.72;;;;;;;20.70;42.51;94400.72;5990425;23;20015;-92
2023/10/06 08:45:28;;;;;;;7.45;3.97;;;;;;;20.73;43.00;94405.97;5979542;23;20019;-93
2023/10/06 08:47:58;;;;;;;13.45;6.78;;;;;;;20.77;43.13;94411.22;5992865;23;20019;-93
2023/10/06 08:50:29;;;;;;;7.32;4.40;;;;;;;20.82;43.05;94411.19;5997367;23;20082;-93
2023/10/06 08:53:03;;;;;;;8.82;5.70;;;;;;;20.88;42.87;94411.94;6022178;23;20053;-94
2023/10/06 08:55:30;;;;;;;10.25;5.93;;;;;;;20.98;42.85;94398.69;6018902;23;20268;-94
2023/10/06 08:57:58;;;;;;;10.55;4.93;;;;;;;20.94;42.63;94402.94;6006518;23;20063;-93
2023/10/06 09:00:31;;;;;;;7.32;5.43;;;;;;;20.95;43.12;94396.94;5980946;23;20075;-93
2023/10/06 09:03:03;;;;;;;8.50;5.20;;;;;;;20.99;43.07;94396.69;6020848;23;20030;-93
2023/10/06 09:05:32;;;;;;;9.05;4.47;;;;;;;20.99;43.02;94396.69;6017515;23;20332;-94
2023/10/06 09:07:58;;;;;;;7.47;4.68;;;;;;;20.98;42.79;94395.94;5995624;23;20018;-94
2023/10/06 09:10:26;;;;;;;9.52;5.20;;;;;;;21.01;42.75;94385.91;6017788;23;20026;-94
2023/10/06 09:13:11;;;;;;;8.43;4.75;;;;;;;21.01;42.95;94375.66;6047760;23;20013;-92
2023/10/06 09:15:36;;;;;;;9.40;4.15;;;;;;;21.06;42.86;94371.41;6051257;23;20458;-93
2023/10/06 09:18:20;;;;;;;6.65;4.22;;;;;;;21.02;42.97;94371.66;6047012;23;20017;-92
2023/10/06 09:20:50;;;;;;;4.70;3.40;;;;;;;21.03;43.00;94364.91;6073725;23;20010;-92
2023/10/06 09:23:36;;;;;;;6.43;4.10;;;;;;;21.06;43.22;94363.91;6052049;23;20087;-93
2023/10/06 09:26:04;;;;;;;5.93;3.50;;;;;;;21.07;42.94;94361.91;6057681;23;20011;-93
2023/10/06 09:28:32;;;;;;;7.40;3.58;;;;;;;21.09;43.03;94362.16;6057519;23;20014;-94
2023/10/06 09:31:00;;;;;;;4.50;3.03;;;;;;;21.06;43.46;94374.91;6053871;23;20024;-93
2023/10/06 09:33:59;;;;;;;6.82;3.78;;;;;;;21.07;43.12;94379.16;6077665;23;20433;-95
2023/10/06 09:36:29;;;;;;;9.13;3.45;;;;;;;21.05;43.24;94376.16;5943769;23;20028;-92
2023/10/06 09:38:55;;;;;;;9.53;3.80;;;;;;;21.07;42.94;94383.91;5971929;23;20184;-94
2023/10/06 09:41:25;;;;;;;8.73;3.75;;;;;;;21.07;43.04;94389.41;5940410;24;20040;-94
2023/10/06 09:43:53;;;;;;;8.38;3.28;;;;;;;21.04;42.51;94374.66;5912981;24;20123;-93
2023/10/06 09:46:22;;;;;;;10.25;3.83;;;;;;;21.02;42.68;94357.16;5956088;24;20490;-94
2023/10/06 09:48:47;;;;;;;6.97;3.42;;;;;;;21.01;43.03;94342.66;5958887;24;20020;-94
2023/10/06 09:51:13;;;;;;;9.35;3.78;;;;;;;20.95;42.87;94352.22;5934045;24;20030;-93
2023/10/06 09:53:40;;;;;;;7.28;4.28;;;;;;;20.87;42.61;94362.97;5960376;24;20032;-94
2023/10/06 09:56:09;;;;;;;6.80;3.88;;;;;;;20.83;42.67;94357.72;5952050;24;20048;-94
2023/10/06 09:58:38;;;;;;;13.27;4.40;;;;;;;20.86;42.83;94367.72;5945945;24;20021;-93
2023/10/06 10:01:04;;;;;;;8.82;4.22;;;;;;;20.94;42.94;94365.22;5956654;24;20028;-94
2023/10/06 10:03:30;;;;;;;7.40;3.45;;;;;;;20.94;43.01;94365.22;5941562;24;20028;-93
2023/10/06 10:06:00;;;;;;;8.52;3.90;;;;;;;20.96;42.74;94368.19;5940481;24;20050;-94
2023/10/06 10:08:26;;;;;;;6.78;3.20;;;;;;;20.98;42.78;94360.19;5939714;24;20401;-93
2023/10/06 10:10:55;;;;;;;10.30;4.40;;;;;;;21.05;43.06;94361.66;5944918;23;20028;-95
2023/10/06 10:13:31;;;;;;;8.75;4.32;;;;;;;21.01;42.77;94366.66;6080233;23;20037;-92
2023/10/06 10:16:38;;;;;;;6.70;3.83;;;;;;;21.02;42.96;94368.16;6078270;23;20438;-95
2023/10/06 10:19:12;;;;;;;5.82;3.63;;;;;;;20.99;43.08;94380.94;6084201;23;20014;-93
2023/10/06 10:21:38;;;;;;;4.70;2.72;;;;;;;20.99;43.17;94369.94;6110533;23;20020;-93
2023/10/06 10:24:17;;;;;;;4.22;2.50;;;;;;;21.06;43.05;94369.41;6075594;23;20315;-92
2023/10/06 10:26:45;;;;;;;4.78;2.90;;;;;;;21.04;43.09;94360.91;6078793;23;20025;-93
2023/10/06 10:29:13;;;;;;;4.22;2.78;;;;;;;21.03;43.02;94355.91;6082333;23;20018;-93
2023/10/06 10:31:41;;;;;;;4.30;2.67;;;;;;;21.04;43.03;94343.66;6098797;23;20025;-92
2023/10/06 10:34:08;;;;;;;4.47;2.70;;;;;;;21.05;43.09;94353.41;6069058;23;20014;-95
2023/10/06 10:36:34;;;;;;;4.70;2.70;;;;;;;21.05;42.92;94367.16;6071387;23;20500;-93
2023/10/06 10:39:09;;;;;;;4.93;2.85;;;;;;;21.05;43.05;94356.91;6080055;23;20014;-93
2023/10/06 10:41:37;;;;;;;5.15;2.92;;;;;;;21.06;43.10;94354.91;6084830;23;20104;-93
2023/10/06 10:44:07;;;;;;;6.97;2.65;;;;;;;21.06;43.51;94344.66;6084510;23;20033;-93
2023/10/06 10:46:42;;;;;;;14.93;6.20;;;;;;;21.02;42.78;94335.16;6083276;23;20033;-93
2023/10/06 10:49:11;;;;;;;11.40;6.70;;;;;;;21.03;42.50;94325.69;6084237;23;20068;-94
2023/10/06 10:51:54;;;;;;;;;;;;;;;20.99;42.50;94322.47;6087419;23;20027;-95
2023/10/06 10:54:21;;;;;;;7.30;4.57;;;;;;;20.87;42.40;94322.50;6107676;23;19923;-94
2023/10/06 10:56:51;;;;;;;9.73;4.00;;;;;;;20.88;42.19;94317.75;6086029;23;20045;-93
2023/10/06 10:59:16;;;;;;;15.98;5.70;;;;;;;20.85;42.34;94319.50;6087275;23;20022;-93
2023/10/06 11:01:44;;;;;;;27.17;7.07;;;;;;;20.90;42.76;94322.72;6083120;23;20017;-95
2023/10/06 11:06:37;;;;;;;15.32;6.88;;;;;;;20.81;42.31;94329.25;6154619;23;20581;-94
2023/10/06 11:09:12;;;;;;;16.67;6.78;;;;;;;20.75;42.50;94315.53;6079421;23;20010;-93
2023/10/06 11:11:38;;;;;;;8.95;4.88;;;;;;;20.81;42.86;94318.25;6082917;23;20069;-93
2023/10/06 11:14:05;;;;;;;15.82;5.80;;;;;;;20.82;42.78;94306.00;6080210;23;20403;-93
2023/10/06 11:16:32;;;;;;;12.15;6.15;;;;;;;20.83;42.72;94307.50;6080639;23;20010;-93
2023/10/06 11:18:58;;;;;;;13.57;5.53;;;;;;;20.87;42.75;94299.75;6086084;23;20093;-93
2023/10/06 11:21:27;;;;;;;10.65;5.32;;;;;;;20.85;42.83;94297.50;6080361;23;20025;-93
2023/10/06 11:23:53;;;;;;;9.70;5.60;;;;;;;20.88;42.64;94293.75;6080740;23;20025;-93
2023/10/06 11:26:28;;;;;;;10.60;5.13;;;;;;;20.90;42.72;94289.75;6081578;23;20021;-96
2023/10/06 11:28:56;;;;;;;8.18;5.35;;;;;;;20.92;42.81;94284.50;6086153;23;20108;-94
2023/10/06 11:31:23;;;;;;;9.75;5.55;;;;;;;20.92;43.01;94284.50;6109099;23;20109;-93
2023/10/06 11:33:49;;;;;;;11.57;5.32;;;;;;;20.93;42.92;94291.50;6084318;23;20010;-92
2023/10/06 11:36:16;;;;;;;10.80;5.60;;;;;;;20.93;42.86;94286.75;6108566;23;20009;-94
2023/10/06 11:38:42;;;;;;;10.23;5.53;;;;;;;20.94;42.78;94269.00;6087509;23;20556;-93
2023/10/06 11:41:07;;;;;;;10.40;6.13;;;;;;;20.95;42.91;94281.50;6086842;23;20010;-95
2023/10/06 11:43:33;;;;;;;11.68;6.00;;;;;;;20.96;43.10;94279.50;6084557;23;20022;-93
2023/10/06 11:46:02;;;;;;;13.02;6.22;;;;;;;20.96;43.00;94268.50;6084599;23;20013;-93
2023/10/06 11:48:29;;;;;;;9.65;5.82;;;;;;;20.95;43.08;94280.75;6086715;23;20029;-94
2023/10/06 11:51:00;;;;;;;7.25;5.60;;;;;;;20.97;43.21;94267.25;6089007;23;20067;-94
2023/10/06 11:53:26;;;;;;;8.30;5.50;;;;;;;20.96;43.22;94263.75;6085440;23;20025;-93
2023/10/06 11:55:53;;;;;;;9.52;5.20;;;;;;;21.01;43.01;94257.44;6087766;23;20157;-93
2023/10/06 11:58:30;;;;;;;7.47;5.75;;;;;;;21.00;43.05;94249.75;6086290;23;20024;-93
2023/10/06 12:00:56;;;;;;;10.75;6.68;;;;;;;20.98;43.02;94253.00;6110203;23;20333;-94
2023/10/06 12:03:34;;;;;;;10.52;6.18;;;;;;;20.99;43.23;94251.75;6083234;23;20018;-94
2023/10/06 12:06:01;;;;;;;12.93;6.07;;;;;;;20.99;43.28;94245.50;6084795;23;20017;-94
2023/10/06 12:08:26;;;;;;;8.10;5.32;;;;;;;21.00;43.14;94236.72;6082181;23;20018;-95
2023/10/06 12:10:52;;;;;;;9.27;5.32;;;;;;;21.00;43.13;94228.47;6083853;23;20397;-93
2023/10/06 12:13:18;;;;;;;11.27;5.63;;;;;;;21.03;43.15;94240.47;6051258;23;20022;-94
2023/10/06 12:15:47;;;;;;;10.27;5.38;;;;;;;21.00;43.34;94236.72;6033775;23;20022;-93
2023/10/06 12:18:13;;;;;;;14.70;6.20;;;;;;;21.05;43.06;94235.94;5992057;23;20082;-92
2023/10/06 12:20:40;;;;;;;94.30;76.05;;;;;;;21.06;43.33;94234.69;6019636;23;20026;-94
2023/10/06 12:23:33;;;;;;;15.85;10.75;;;;;;;21.03;43.46;94230.22;5977527;23;20018;-94
2023/10/06 12:26:10;;;;;;;19.38;7.57;;;;;;;21.07;43.37;94219.69;5926883;24;20072;-94
2023/10/06 12:28:42;;;;;;;17.05;8.25;;;;;;;21.06;43.19;94214.69;5935554;24;20090;-94
2023/10/06 12:31:08;;;;;;;9.70;6.97;;;;;;;21.08;43.19;94210.19;5869424;23;20032;-93
2023/10/06 12:33:34;;;;;;;14.45;6.63;;;;;;;21.09;43.06;94214.44;6080238;23;20046;-95
2023/10/06 12:36:08;;;;;;;12.27;7.15;;;;;;;21.08;43.11;94212.94;6077763;23;20053;-93
2023/10/06 12:38:36;;;;;;;13.80;6.97;;;;;;;21.07;43.11;94219.69;6110657;23;20081;-93
2023/10/06 12:41:09;;;;;;;17.80;7.28;;;;;;;21.08;43.31;94214.94;6040113;23;20026;-94